Aviation Digital Data Service (ADDS)

Output produced by METARs form (1327 UTC 16 August 2022)
found at http://aviationweather.gov/metar/data/
 
METAR text: KEVB 161247Z 26005KT 10SM CLR 27/25 A2992
Conditions at: KEVB (NEW SMYRNA BEACH, FL, US) observed 1247 UTC 16 August 2022
Temperature: 27.0°C (81°F)
Dewpoint: 25.0°C (77°F) [RH = 89%]
Pressure (altimeter): 29.92 inches Hg (1013.3 mb)
Winds: from the W (260 degrees) at 6 MPH (5 knots; 2.6 m/s)
Visibility: 10 or more miles (16+ km)
Ceiling: at least 12,000 feet AGL
Clouds: sky clear below 12,000 feet AGL
Weather: no significant weather observed at this time

METAR text: KEVB 161147Z 26005KT 10SM CLR 24/24 A2992
Conditions at: KEVB (NEW SMYRNA BEACH, FL, US) observed 1147 UTC 16 August 2022
Temperature: 24.0°C (75°F)
Dewpoint: 24.0°C (75°F) [RH = 100%]
Pressure (altimeter): 29.92 inches Hg (1013.3 mb)
Winds: from the W (260 degrees) at 6 MPH (5 knots; 2.6 m/s)
Visibility: 10 or more miles (16+ km)
Ceiling: at least 12,000 feet AGL
Clouds: sky clear below 12,000 feet AGL
Weather: no significant weather observed at this time